createdAt,value
2018-11-05T00:02:20.300Z,49.30
2018-11-05T00:04:52.058Z,51.63
2018-11-05T00:07:20.898Z,53.53
2018-11-05T00:09:49.800Z,52.42
2018-11-05T00:12:19.918Z,51.53
2018-11-05T00:14:50.137Z,57.90
2018-11-05T00:17:20.333Z,56.42
2018-11-05T00:19:49.087Z,59.88
2018-11-05T00:22:17.959Z,65.62
2018-11-05T00:24:46.611Z,57.40
2018-11-05T00:27:15.285Z,57.55
2018-11-05T00:29:45.352Z,56.17
2018-11-05T00:32:15.555Z,59.85
2018-11-05T00:34:47.037Z,62.00
2018-11-05T00:37:18.743Z,51.95
2018-11-05T00:39:47.528Z,56.60
2018-11-05T00:42:16.343Z,58.92
2018-11-05T00:44:44.929Z,57.53
2018-11-05T00:47:15.041Z,56.45
2018-11-05T00:49:46.623Z,54.72
2018-11-05T00:52:16.756Z,55.63
2018-11-05T00:54:48.356Z,53.90
2018-11-05T00:57:18.589Z,50.70
2018-11-05T00:59:48.746Z,50.30
2018-11-05T01:02:19.085Z,52.45
2018-11-05T01:04:48.260Z,45.33
2018-11-05T01:07:18.288Z,52.75
2018-11-05T01:09:47.030Z,54.45
2018-11-05T01:12:15.667Z,50.20
2018-11-05T01:14:46.403Z,50.97
2018-11-05T01:17:18.023Z,48.22
2018-11-05T01:19:46.686Z,52.17
2018-11-05T01:22:15.456Z,55.97
2018-11-05T01:24:46.011Z,53.13
2018-11-05T01:27:16.090Z,49.28
2018-11-05T01:29:46.238Z,51.37
2018-11-05T01:32:14.876Z,43.67
2018-11-05T01:34:43.554Z,44.97
2018-11-05T01:37:12.266Z,45.42
2018-11-05T01:39:42.294Z,46.80
2018-11-05T01:42:12.592Z,50.12
2018-11-05T01:44:42.752Z,45.53
2018-11-05T01:47:12.875Z,49.95
2018-11-05T01:49:42.177Z,48.70
2018-11-05T01:52:10.956Z,46.13
2018-11-05T01:54:42.615Z,51.42
2018-11-05T01:57:12.752Z,48.70
2018-11-05T01:59:42.810Z,46.95
2018-11-05T02:02:11.428Z,48.58
2018-11-05T02:04:43.096Z,42.85
2018-11-05T02:07:13.257Z,45.67
2018-11-05T02:09:44.995Z,47.50
2018-11-05T02:12:16.139Z,47.53
2018-11-05T02:14:46.680Z,48.78
2018-11-05T02:17:16.846Z,48.15
2018-11-05T02:19:48.540Z,41.92
2018-11-05T02:22:18.764Z,47.28
2018-11-05T02:24:49.044Z,46.13
2018-11-05T02:27:20.839Z,43.35
2018-11-05T02:29:49.309Z,45.50
2018-11-05T02:32:17.895Z,48.95
2018-11-05T02:34:47.081Z,48.53
2018-11-05T02:37:15.789Z,50.63
2018-11-05T02:39:46.129Z,50.15
2018-11-05T02:42:15.619Z,48.03
2018-11-05T02:44:46.534Z,50.95
2018-11-05T02:47:16.704Z,46.85
2018-11-05T02:49:47.005Z,46.30
2018-11-05T02:52:16.083Z,44.50
2018-11-05T02:54:46.125Z,47.10
2018-11-05T02:57:16.366Z,50.40
2018-11-05T02:59:45.097Z,46.80
2018-11-05T03:02:15.125Z,41.60
2018-11-05T03:04:43.760Z,52.47
2018-11-05T03:07:13.874Z,48.87
2018-11-05T03:09:42.558Z,48.60
2018-11-05T03:12:14.364Z,52.97
2018-11-05T03:14:44.563Z,46.15
2018-11-05T03:17:14.883Z,49.63
2018-11-05T03:19:43.528Z,49.92
2018-11-05T03:22:13.719Z,43.85
2018-11-05T03:24:42.346Z,48.58
2018-11-05T03:27:13.807Z,41.35
2018-11-05T03:29:42.448Z,41.37
2018-11-05T03:32:11.175Z,42.85
2018-11-05T03:34:39.861Z,44.05
2018-11-05T03:37:10.055Z,42.40
2018-11-05T03:39:40.078Z,36.50
2018-11-05T03:42:10.413Z,39.47
2018-11-05T03:44:39.023Z,35.53
2018-11-05T03:47:09.360Z,36.97
2018-11-05T03:49:41.030Z,43.63
2018-11-05T03:52:09.649Z,37.03
2018-11-05T03:54:38.435Z,45.63
2018-11-05T03:57:08.040Z,40.30
2018-11-05T03:59:36.731Z,38.17
2018-11-05T04:02:06.183Z,42.58
2018-11-05T04:04:37.787Z,41.97
2018-11-05T04:07:07.898Z,43.00
2018-11-05T04:09:36.493Z,40.40
2018-11-05T04:12:05.313Z,40.97
2018-11-05T04:14:34.023Z,39.55
2018-11-05T04:17:05.713Z,37.92
2018-11-05T04:19:36.629Z,39.22
2018-11-05T04:22:05.413Z,38.90
2018-11-05T04:24:35.622Z,42.70
2018-11-05T04:27:06.002Z,40.53
2018-11-05T04:29:34.758Z,40.08
2018-11-05T04:32:05.580Z,37.53
2018-11-05T04:34:36.347Z,39.08
2018-11-05T04:37:04.985Z,37.15
2018-11-05T04:39:35.074Z,37.13
2018-11-05T04:42:03.903Z,38.33
2018-11-05T04:44:34.068Z,43.55
2018-11-05T04:47:03.411Z,42.83
2018-11-05T04:49:32.135Z,37.53
2018-11-05T04:52:02.381Z,36.85
2018-11-05T04:54:32.504Z,39.40
2018-11-05T04:57:01.027Z,32.17
2018-11-05T04:59:29.682Z,32.65
2018-11-05T05:01:59.778Z,37.33
2018-11-05T05:04:30.385Z,37.03
2018-11-05T05:07:00.555Z,32.55
2018-11-05T05:09:31.193Z,32.95
2018-11-05T05:12:00.311Z,31.60
2018-11-05T05:14:31.157Z,36.03
2018-11-05T05:17:01.190Z,34.90
2018-11-05T05:19:29.939Z,38.65
2018-11-05T05:22:00.211Z,35.70
2018-11-05T05:24:31.857Z,36.35
2018-11-05T05:27:02.823Z,37.33
2018-11-05T05:29:33.435Z,33.42
2018-11-05T05:32:02.280Z,33.90
2018-11-05T05:34:30.895Z,36.22
2018-11-05T05:37:00.935Z,31.45
2018-11-05T05:39:29.603Z,40.50
2018-11-05T05:41:59.997Z,37.42
2018-11-05T05:44:30.065Z,31.92
2018-11-05T05:46:58.723Z,34.03
2018-11-05T05:49:28.977Z,33.53
2018-11-05T05:51:59.103Z,30.80
2018-11-05T05:54:29.255Z,35.75
2018-11-05T05:56:57.946Z,33.20
2018-11-05T05:59:28.041Z,33.28
2018-11-05T06:01:56.657Z,35.85
2018-11-05T06:04:25.932Z,32.13
2018-11-05T06:06:56.601Z,31.17
2018-11-05T06:09:26.778Z,36.22
2018-11-05T06:11:55.776Z,37.50
2018-11-05T06:14:24.561Z,33.33
2018-11-05T06:16:55.005Z,35.67
2018-11-05T06:19:26.572Z,35.38
2018-11-05T06:21:55.300Z,34.35
2018-11-05T06:24:23.926Z,31.42
2018-11-05T06:26:55.540Z,34.97
2018-11-05T06:29:25.723Z,30.08
2018-11-05T06:31:55.753Z,34.95
2018-11-05T06:34:27.785Z,33.60
2018-11-05T06:36:57.857Z,36.75
2018-11-05T06:39:26.549Z,32.55
2018-11-05T06:41:56.746Z,30.73
2018-11-05T06:44:26.793Z,31.05
2018-11-05T06:46:57.061Z,32.20
2018-11-05T06:49:25.689Z,33.05
2018-11-05T06:51:55.308Z,30.88
2018-11-05T06:54:25.378Z,35.25
2018-11-05T06:56:54.063Z,27.45
2018-11-05T06:59:23.102Z,30.77
2018-11-05T07:01:54.664Z,34.47
2018-11-05T07:04:24.862Z,33.78
2018-11-05T07:06:54.964Z,33.45
2018-11-05T07:09:25.084Z,31.23
2018-11-05T07:11:55.406Z,25.75
2018-11-05T07:14:25.608Z,35.17
2018-11-05T07:16:55.648Z,30.02
2018-11-05T07:19:25.826Z,30.77
2018-11-05T07:21:54.405Z,34.90
2018-11-05T07:24:23.058Z,30.90
2018-11-05T07:26:53.200Z,33.85
2018-11-05T07:29:23.299Z,34.20
2018-11-05T07:31:52.423Z,29.63
2018-11-05T07:34:21.353Z,31.17
2018-11-05T07:36:49.921Z,31.05
2018-11-05T07:39:18.503Z,32.67
2018-11-05T07:41:48.582Z,33.97
2018-11-05T07:44:18.771Z,31.70
2018-11-05T07:46:48.167Z,34.33
2018-11-05T07:49:19.897Z,35.15
2018-11-05T07:51:49.980Z,32.30
2018-11-05T07:54:21.504Z,37.97
2018-11-05T07:56:51.686Z,33.85
2018-11-05T07:59:21.873Z,39.00
2018-11-05T08:01:52.096Z,37.35
2018-11-05T08:04:20.700Z,45.10
2018-11-05T08:06:50.913Z,35.00
2018-11-05T08:09:22.556Z,38.83
2018-11-05T08:11:54.215Z,37.38
2018-11-05T08:14:24.442Z,40.75
2018-11-05T08:16:52.929Z,35.80
2018-11-05T08:19:23.049Z,34.10
2018-11-05T08:21:53.141Z,31.67
2018-11-05T08:24:21.546Z,38.90
2018-11-05T08:26:50.230Z,38.58
2018-11-05T08:29:18.811Z,36.00
2018-11-05T08:31:47.686Z,34.50
2018-11-05T08:34:17.869Z,36.75
2018-11-05T08:36:48.085Z,32.05
2018-11-05T08:39:16.811Z,32.00
2018-11-05T08:41:47.003Z,32.33
2018-11-05T08:44:17.110Z,30.37
2018-11-05T08:46:47.256Z,29.87
2018-11-05T08:49:15.774Z,25.37
2018-11-05T08:51:47.564Z,29.55
2018-11-05T08:54:17.408Z,28.20
2018-11-05T08:56:47.462Z,26.55
2018-11-05T08:59:17.663Z,26.27
2018-11-05T09:01:47.658Z,26.33
2018-11-05T09:04:16.283Z,26.33
2018-11-05T09:06:46.275Z,23.70
2018-11-05T09:09:17.286Z,25.65
2018-11-05T09:11:47.452Z,23.77
2018-11-05T09:14:18.762Z,26.40
2018-11-05T09:16:48.945Z,28.90
2018-11-05T09:19:20.620Z,25.15
2018-11-05T09:21:49.172Z,25.70
2018-11-05T09:24:19.210Z,25.37
2018-11-05T09:26:49.301Z,23.92
2018-11-05T09:29:17.781Z,23.10
2018-11-05T09:31:47.997Z,23.15
2018-11-05T09:34:19.769Z,24.00
2018-11-05T09:36:50.876Z,22.05
2018-11-05T09:39:19.457Z,22.23
2018-11-05T09:41:48.177Z,22.60
2018-11-05T09:44:18.269Z,22.52
2018-11-05T09:46:46.844Z,23.90
2018-11-05T09:49:18.326Z,22.20
2018-11-05T09:51:46.878Z,22.17
2018-11-05T09:54:16.945Z,22.02
2018-11-05T09:56:47.076Z,23.60
2018-11-05T09:59:16.044Z,21.73
2018-11-05T10:01:45.107Z,21.12
2018-11-05T10:04:13.522Z,21.35
2018-11-05T10:06:42.087Z,20.90
2018-11-05T10:09:13.540Z,21.67
2018-11-05T10:11:44.249Z,21.42
2018-11-05T10:14:14.268Z,23.85
2018-11-05T10:16:42.819Z,22.98
2018-11-05T10:19:11.352Z,21.37
2018-11-05T10:21:41.428Z,21.52
2018-11-05T10:24:11.529Z,20.55
2018-11-05T10:26:41.607Z,21.80
2018-11-05T10:29:11.596Z,20.70
2018-11-05T10:31:42.220Z,24.90
2018-11-05T10:34:10.733Z,22.73
2018-11-05T10:36:39.293Z,21.85
2018-11-05T10:39:10.982Z,23.30
2018-11-05T10:41:39.556Z,23.77
2018-11-05T10:44:10.127Z,23.80
2018-11-05T10:46:38.648Z,24.33
2018-11-05T10:49:07.841Z,23.23
2018-11-05T10:51:37.962Z,27.73
2018-11-05T10:54:09.356Z,25.65
2018-11-05T10:56:39.490Z,29.48
2018-11-05T10:59:09.565Z,28.20
2018-11-05T11:01:55.584Z,28.17
2018-11-05T11:04:34.502Z,28.65
2018-11-05T11:07:06.442Z,28.12
2018-11-05T11:09:37.986Z,28.23
2018-11-05T11:12:08.310Z,26.00
2018-11-05T11:14:36.804Z,29.10
2018-11-05T11:17:06.912Z,30.45
2018-11-05T11:19:36.927Z,27.52
2018-11-05T11:22:07.274Z,28.83
2018-11-05T11:24:35.845Z,27.55
2018-11-05T11:27:04.325Z,29.30
2018-11-05T11:29:34.362Z,29.63
2018-11-05T11:32:03.946Z,31.48
2018-11-05T11:34:32.528Z,30.35
2018-11-05T11:37:01.143Z,31.75
2018-11-05T11:39:29.601Z,30.62
2018-11-05T11:41:59.649Z,31.42
2018-11-05T11:44:28.798Z,29.90
2018-11-05T11:46:57.387Z,32.85
2018-11-05T11:49:27.928Z,34.60
2018-11-05T11:51:58.002Z,34.47
2018-11-05T11:54:26.521Z,39.67
2018-11-05T11:56:55.081Z,40.35
2018-11-05T11:59:23.786Z,40.08
2018-11-05T12:02:11.477Z,38.33
2018-11-05T12:04:40.499Z,39.58
2018-11-05T12:07:11.351Z,41.25
2018-11-05T12:09:40.759Z,39.60
2018-11-05T12:12:13.736Z,42.53
2018-11-05T12:14:42.362Z,40.90
2018-11-05T12:17:12.263Z,44.42
2018-11-05T12:19:43.881Z,40.80
2018-11-05T12:22:11.633Z,48.30
2018-11-05T12:24:41.586Z,48.72
2018-11-05T12:27:11.695Z,50.17
2018-11-05T12:29:41.808Z,44.90
2018-11-05T12:32:10.481Z,47.05
2018-11-05T12:34:39.079Z,45.33
2018-11-05T12:37:07.641Z,45.80
2018-11-05T12:39:36.795Z,46.22
2018-11-05T12:42:05.446Z,44.92
2018-11-05T12:44:33.187Z,41.83
2018-11-05T12:47:03.295Z,47.75
2018-11-05T12:49:34.575Z,46.70
2018-11-05T12:52:04.163Z,40.47
2018-11-05T12:54:33.265Z,43.03
2018-11-05T12:57:03.264Z,42.38
2018-11-05T12:59:33.278Z,41.42
2018-11-05T13:02:01.011Z,43.30
2018-11-05T13:04:32.439Z,44.22
2018-11-05T13:07:01.005Z,41.42
2018-11-05T13:09:31.091Z,42.45
2018-11-05T13:12:00.317Z,44.53
2018-11-05T13:14:30.537Z,46.70
2018-11-05T13:17:00.571Z,41.78
2018-11-05T13:19:29.136Z,43.95
2018-11-05T13:21:59.328Z,43.90
2018-11-05T13:24:27.951Z,40.08
2018-11-05T13:26:58.123Z,41.00
2018-11-05T13:29:28.256Z,42.97
2018-11-05T13:31:58.356Z,38.75
2018-11-05T13:34:26.966Z,41.50
2018-11-05T13:36:57.210Z,42.33
2018-11-05T13:39:26.158Z,39.47
2018-11-05T13:41:56.699Z,38.40
2018-11-05T13:44:26.806Z,44.17
2018-11-05T13:46:55.693Z,39.92
2018-11-05T13:49:24.346Z,41.17
2018-11-05T13:51:52.852Z,40.17
2018-11-05T13:54:24.502Z,39.25
2018-11-05T13:56:53.012Z,43.45
2018-11-05T13:59:22.129Z,38.25
2018-11-05T14:01:52.963Z,42.03
2018-11-05T14:04:23.071Z,36.97
2018-11-05T14:06:53.280Z,37.65
2018-11-05T14:09:23.408Z,40.35
2018-11-05T14:11:52.007Z,40.65
2018-11-05T14:14:23.579Z,36.35
2018-11-05T14:16:55.211Z,38.20
2018-11-05T14:20:04.361Z,45.22
2018-11-05T14:26:48.609Z,41.42
2018-11-05T14:36:51.468Z,37.88
2018-11-05T14:40:03.954Z,38.78
2018-11-05T14:43:21.768Z,39.05
2018-11-05T14:46:25.826Z,40.38
2018-11-05T14:48:58.631Z,43.33
2018-11-05T14:51:27.187Z,40.25
2018-11-05T14:53:55.855Z,40.58
2018-11-05T14:56:25.589Z,43.28
2018-11-05T14:58:54.162Z,41.85
2018-11-05T15:01:22.743Z,45.67
2018-11-05T15:03:51.328Z,42.75
2018-11-05T15:06:21.373Z,43.25
2018-11-05T15:08:51.456Z,40.88
2018-11-05T15:11:21.515Z,46.08
2018-11-05T15:13:49.953Z,46.22
2018-11-05T15:16:18.550Z,48.30
2018-11-05T15:18:50.631Z,46.10
2018-11-05T15:21:19.493Z,46.92
2018-11-05T15:23:48.056Z,42.75
2018-11-05T15:26:16.546Z,47.45
2018-11-05T15:28:46.655Z,45.15
2018-11-05T15:31:16.783Z,49.08
2018-11-05T15:33:45.422Z,48.35
2018-11-05T15:36:17.029Z,49.35
2018-11-05T15:38:45.636Z,52.47
2018-11-05T15:41:14.182Z,49.85
2018-11-05T15:43:45.929Z,48.60
2018-11-05T15:46:15.954Z,47.22
2018-11-05T15:48:44.558Z,47.45
2018-11-05T15:51:13.279Z,46.92
2018-11-05T15:53:43.428Z,47.85
2018-11-05T15:56:13.296Z,47.58
2018-11-05T15:58:41.861Z,49.88
2018-11-05T16:01:10.521Z,48.38
2018-11-05T16:03:41.616Z,46.78
2018-11-05T16:06:11.789Z,44.95
2018-11-05T16:08:43.331Z,49.15
2018-11-05T16:11:11.931Z,55.08
2018-11-05T16:13:41.050Z,49.85
2018-11-05T16:16:11.385Z,52.83
2018-11-05T16:18:43.032Z,53.42
2018-11-05T16:21:13.115Z,50.47
2018-11-05T16:23:43.265Z,52.40
2018-11-05T16:26:13.351Z,51.00
2018-11-05T16:28:43.396Z,55.00
2018-11-05T16:31:14.380Z,49.33
2018-11-05T16:33:45.987Z,49.72
2018-11-05T16:36:15.370Z,50.83
2018-11-05T16:38:46.913Z,53.53
2018-11-05T16:41:18.618Z,48.55
2018-11-05T16:43:48.641Z,52.55
2018-11-05T16:46:18.910Z,52.78
2018-11-05T16:48:50.406Z,51.60
2018-11-05T16:51:18.967Z,48.78
2018-11-05T16:53:47.589Z,50.97
2018-11-05T16:56:16.622Z,49.75
2018-11-05T16:58:45.157Z,47.22
2018-11-05T17:01:13.932Z,46.22
2018-11-05T17:03:43.801Z,59.25
2018-11-05T17:06:15.358Z,50.17
2018-11-05T17:08:45.717Z,55.17
2018-11-05T17:11:15.925Z,51.33
2018-11-05T17:13:46.291Z,55.10
2018-11-05T17:16:14.812Z,52.88
2018-11-05T17:18:43.185Z,50.78
2018-11-05T17:21:11.785Z,49.88
2018-11-05T17:23:42.085Z,53.28
2018-11-05T17:26:12.022Z,51.67
2018-11-05T17:28:40.507Z,49.85
2018-11-05T17:31:10.995Z,52.55
2018-11-05T17:33:41.455Z,48.30
2018-11-05T17:36:11.501Z,47.25
2018-11-05T17:38:43.007Z,57.47
2018-11-05T17:41:12.981Z,47.88
2018-11-05T17:43:41.616Z,49.10
2018-11-05T17:46:11.968Z,48.75
2018-11-05T17:48:41.972Z,56.20
2018-11-05T17:51:12.729Z,50.22
2018-11-05T17:53:42.832Z,55.22
2018-11-05T17:56:12.870Z,51.72
2018-11-05T17:58:41.428Z,47.40
2018-11-05T18:01:11.687Z,49.10
2018-11-05T18:03:41.874Z,45.05
2018-11-05T18:06:10.441Z,51.05
2018-11-05T18:08:40.478Z,48.75
2018-11-05T18:11:09.681Z,49.88
2018-11-05T18:13:38.276Z,51.25
2018-11-05T18:16:08.366Z,47.60
2018-11-05T18:18:38.378Z,48.75
2018-11-05T18:21:08.365Z,50.90
2018-11-05T18:23:36.884Z,50.10
2018-11-05T18:26:06.957Z,53.65
2018-11-05T18:28:37.136Z,50.63
2018-11-05T18:31:07.772Z,45.20
2018-11-05T18:33:37.868Z,48.08
2018-11-05T18:36:06.447Z,52.80
2018-11-05T18:38:36.537Z,51.42
2018-11-05T18:41:05.033Z,49.15
2018-11-05T18:43:36.743Z,47.42
2018-11-05T18:46:06.862Z,51.20
2018-11-05T18:48:38.553Z,50.60
2018-11-05T18:51:08.633Z,56.22
2018-11-05T18:53:38.742Z,50.97
2018-11-05T18:56:08.914Z,52.30
2018-11-05T18:58:39.002Z,47.90
2018-11-05T19:01:09.067Z,48.80
2018-11-05T19:03:37.735Z,50.22
2018-11-05T19:06:07.748Z,56.60
2018-11-05T19:08:39.248Z,51.50
2018-11-05T19:11:10.925Z,50.63
2018-11-05T19:13:40.268Z,50.00
2018-11-05T19:16:08.048Z,47.35
2018-11-05T19:18:38.054Z,53.03
2018-11-05T19:21:09.122Z,49.80
2018-11-05T19:23:38.317Z,50.58
2018-11-05T19:26:06.788Z,44.92
2018-11-05T19:28:36.862Z,48.78
2018-11-05T19:31:06.911Z,58.00
2018-11-05T19:33:35.775Z,51.33
2018-11-05T19:36:07.022Z,49.53
2018-11-05T19:38:37.048Z,45.80
2018-11-05T19:41:08.584Z,50.20
2018-11-05T19:43:37.706Z,51.00
2018-11-05T19:46:09.889Z,48.58
2018-11-05T19:48:39.946Z,43.53
2018-11-05T19:51:08.463Z,49.40
2018-11-05T19:53:37.757Z,47.92
2018-11-05T19:56:08.758Z,45.72
2018-11-05T19:58:38.755Z,46.92
2018-11-05T20:01:06.546Z,48.00
2018-11-05T20:03:35.883Z,49.65
2018-11-05T20:06:06.007Z,46.45
2018-11-05T20:08:34.613Z,49.30
2018-11-05T20:11:03.711Z,51.28
2018-11-05T20:13:33.849Z,54.25
2018-11-05T20:16:05.410Z,46.67
2018-11-05T20:18:35.505Z,48.92
2018-11-05T20:21:04.604Z,47.00
2018-11-05T20:23:36.090Z,52.03
2018-11-05T20:26:05.396Z,49.38
2018-11-05T20:28:34.129Z,51.28
2018-11-05T20:31:05.586Z,50.70
2018-11-05T20:33:36.111Z,47.47
2018-11-05T20:36:04.565Z,48.25
2018-11-05T20:38:33.187Z,46.95
2018-11-05T20:41:03.245Z,45.92
2018-11-05T20:43:33.209Z,49.45
2018-11-05T20:46:03.323Z,50.65
2018-11-05T20:48:33.321Z,55.75
2018-11-05T20:51:04.824Z,53.58
2018-11-05T20:53:35.114Z,48.03
2018-11-05T20:56:03.699Z,55.60
2018-11-05T20:58:32.279Z,51.30
2018-11-05T21:01:01.180Z,48.53
2018-11-05T21:03:31.147Z,51.55
2018-11-05T21:05:59.844Z,55.58
2018-11-05T21:08:29.989Z,58.30
2018-11-05T21:10:58.576Z,54.05
2018-11-05T21:13:28.702Z,58.00
2018-11-05T21:15:58.711Z,57.53
2018-11-05T21:18:27.263Z,57.15
2018-11-05T21:20:57.410Z,63.72
2018-11-05T21:23:27.336Z,54.55
2018-11-05T21:25:57.431Z,65.18
2018-11-05T21:28:26.004Z,62.00
2018-11-05T21:30:56.068Z,55.17
2018-11-05T21:33:26.123Z,62.60
2018-11-05T21:35:55.251Z,62.83
2018-11-05T21:38:23.830Z,60.47
2018-11-05T21:40:52.509Z,65.93
2018-11-05T21:43:21.006Z,68.35
2018-11-05T21:45:49.573Z,64.45
2018-11-05T21:48:19.228Z,66.15
2018-11-05T21:50:49.392Z,78.80
2018-11-05T21:53:19.486Z,70.18
2018-11-05T21:55:50.962Z,67.75
2018-11-05T21:58:18.999Z,67.25
2018-11-05T22:00:47.614Z,65.18
2018-11-05T22:03:19.210Z,67.15
2018-11-05T22:05:47.751Z,70.93
2018-11-05T22:08:17.871Z,67.55
2018-11-05T22:10:47.915Z,65.07
2018-11-05T22:13:18.006Z,60.67
2018-11-05T22:15:49.175Z,61.30
2018-11-05T22:18:19.146Z,67.85
2018-11-05T22:20:47.757Z,66.10
2018-11-05T22:23:17.902Z,70.70
2018-11-05T22:25:47.063Z,70.43
2018-11-05T22:28:17.195Z,70.18
2018-11-05T22:30:45.764Z,68.62
2018-11-05T22:33:17.324Z,69.78
2018-11-05T22:35:47.451Z,62.33
2018-11-05T22:38:18.295Z,63.13
2018-11-05T22:40:46.882Z,59.78
2018-11-05T22:43:15.433Z,57.90
2018-11-05T22:45:45.592Z,56.47
2018-11-05T22:48:14.255Z,61.10
2018-11-05T22:50:45.931Z,64.60
2018-11-05T22:53:15.528Z,65.62
2018-11-05T22:55:46.088Z,65.57
2018-11-05T22:58:16.270Z,67.40
2018-11-05T23:01:02.456Z,68.95
2018-11-05T23:03:34.251Z,67.22
2018-11-05T23:06:04.447Z,67.65
2018-11-05T23:08:33.009Z,71.22
2018-11-05T23:11:03.210Z,72.55
2018-11-05T23:13:31.847Z,70.20
2018-11-05T23:16:03.451Z,67.55
2018-11-05T23:18:33.595Z,64.68
2018-11-05T23:21:02.197Z,64.15
2018-11-05T23:23:30.798Z,64.82
2018-11-05T23:26:00.829Z,59.65
2018-11-05T23:28:32.473Z,66.25
2018-11-05T23:31:02.521Z,56.42
2018-11-05T23:33:34.308Z,61.50
2018-11-05T23:36:02.787Z,68.47
2018-11-05T23:38:31.620Z,65.53
2018-11-05T23:41:01.825Z,56.90
2018-11-05T23:43:30.153Z,56.25
2018-11-05T23:45:58.673Z,53.63
2018-11-05T23:48:30.130Z,62.85
2018-11-05T23:51:00.146Z,64.28
2018-11-05T23:53:28.921Z,54.15
2018-11-05T23:55:57.526Z,56.25
2018-11-05T23:58:26.091Z,56.13
